Time;durP1;ratioP1;P1;durP2;ratioP2;P2;SDS_P1;SDS_P2;PMS_P1;PMS_P2;Temp;Humidity;BMP_temperature;BMP_pressure;BME280_temperature;BME280_humidity;BME280_pressure;Samples;Min_cycle;Max_cycle;Signal;HPM_P1;HPM_P2
2021/01/13 00:01:40;;;;;;;;;;;;;;;4.66;57.66;100064.06;4887022;29;19923;-79
2021/01/13 00:04:09;;;;;;;;;;;;;;;4.96;56.69;100067.34;4927872;29;19938;-77
2021/01/13 00:06:35;;;;;;;;;;;;;;;4.83;57.39;100061.03;4909919;29;19937;-77
2021/01/13 00:09:04;;;;;;;;;;;;;;;5.20;56.53;100059.19;4927819;29;19930;-78
2021/01/13 00:11:30;;;;;;;;;;;;;;;4.95;57.16;100065.59;4912228;29;20259;-78
2021/01/13 00:13:59;;;;;;;;;;;;;;;4.85;57.06;100061.03;4951358;28;19934;-77
2021/01/13 00:16:25;;;;;;;;;;;;;;;4.91;56.75;100055.13;4958944;28;19921;-79
2021/01/13 00:18:59;;;;;;;;;;;;;;;4.73;57.40;100053.03;4970087;28;19933;-80
2021/01/13 00:21:25;;;;;;;;;;;;;;;5.00;56.32;100050.13;4964552;28;20352;-79
2021/01/13 00:23:51;;;;;;;;;;;;;;;5.02;56.38;100041.56;4985511;28;20011;-79
2021/01/13 00:26:21;;;;;;;;;;;;;;;5.02;56.30;100040.69;4984623;28;19929;-78
2021/01/13 00:28:48;;;;;;;;;;;;;;;5.15;55.96;100030.59;4979187;28;19955;-78
2021/01/13 00:31:15;;;;;;;;;;;;;;;5.00;56.18;100032.00;4974747;28;19928;-78
2021/01/13 00:33:48;;;;;;;;;;;;;;;5.06;55.62;100027.84;4977226;28;19922;-78
2021/01/13 00:36:20;;;;;;;;;;;;;;;5.10;55.73;100023.59;4970520;28;19922;-78
2021/01/13 00:38:47;;;;;;;;;;;;;;;4.71;56.66;100037.47;4986945;28;19929;-78
2021/01/13 00:41:14;;;;;;;;;;;;;;;4.38;58.70;100029.84;4967028;28;19929;-79
2021/01/13 00:43:40;;;;;;;;;;;;;;;4.80;57.36;100031.59;4955833;28;19995;-78
2021/01/13 00:46:07;;;;;;;;;;;;;;;4.74;57.51;100028.91;4986738;28;19925;-79
2021/01/13 00:48:33;;;;;;;;;;;;;;;4.72;57.47;100030.56;4950249;28;19929;-78
2021/01/13 00:51:00;;;;;;;;;;;;;;;4.59;57.90;100031.16;4933052;28;19929;-79
2021/01/13 00:53:27;;;;;;;;;;;;;;;5.07;56.76;100018.38;4960533;28;19988;-79
2021/01/13 00:55:53;;;;;;;;;;;;;;;5.01;56.92;100021.69;4964572;28;20732;-78
2021/01/13 00:58:22;;;;;;;;;;;;;;;5.07;56.18;100013.19;4968180;28;19926;-80
2021/01/13 01:00:52;;;;;;;;;;;;;;;4.98;56.04;100024.25;4935197;28;20308;-78
2021/01/13 01:03:19;;;;;;;;;;;;;;;4.99;56.16;100015.59;4968477;28;19932;-79
2021/01/13 01:05:48;;;;;;;;;;;;;;;5.08;55.78;100010.63;4946555;28;20297;-78
2021/01/13 01:08:15;;;;;;;;;;;;;;;5.23;55.15;100005.72;4947364;28;19922;-78
2021/01/13 01:10:41;;;;;;;;;;;;;;;5.27;54.72;99998.91;4962037;28;19933;-79
2021/01/13 01:13:08;;;;;;;;;;;;;;;4.86;55.31;100004.97;4947841;28;19923;-77
2021/01/13 01:15:35;;;;;;;;;;;;;;;5.10;53.55;99998.56;4945157;28;19926;-79
2021/01/13 01:18:03;;;;;;;;;;;;;;;5.37;52.51;99993.03;4951045;28;20008;-77
2021/01/13 01:20:29;;;;;;;;;;;;;;;5.61;51.67;100003.81;4964326;28;19921;-79
2021/01/13 01:23:00;;;;;;;;;;;;;;;5.55;51.56;100001.16;4952129;28;20399;-77
2021/01/13 01:25:28;;;;;;;;;;;;;;;5.66;52.48;99999.59;4946759;28;20008;-77
2021/01/13 01:27:55;;;;;;;;;;;;;;;5.62;52.52;100005.56;4937077;29;19922;-77
2021/01/13 01:30:24;;;;;;;;;;;;;;;5.96;51.95;99999.25;4923061;29;19922;-78
2021/01/13 01:32:51;;;;;;;;;;;;;;;5.69;52.15;100004.84;4939221;29;20029;-80
2021/01/13 01:35:17;;;;;;;;;;;;;;;5.87;51.63;100006.91;4941117;29;19922;-78
2021/01/13 01:37:50;;;;;;;;;;;;;;;6.16;50.80;99999.56;4935134;29;19930;-77
2021/01/13 01:40:17;;;;;;;;;;;;;;;6.28;50.41;100002.38;4901234;29;19986;-78
2021/01/13 01:42:45;;;;;;;;;;;;;;;5.99;50.64;100004.50;4913711;29;21302;-79
2021/01/13 01:45:15;;;;;;;;;;;;;;;6.42;50.05;99998.25;4937707;29;20298;-79
2021/01/13 01:47:41;;;;;;;;;;;;;;;6.59;49.42;99988.06;4924017;28;19926;-80
2021/01/13 01:50:11;;;;;;;;;;;;;;;6.63;49.48;99994.16;4948358;28;19984;-79
2021/01/13 01:52:41;;;;;;;;;;;;;;;6.52;49.45;99999.25;4930244;28;19926;-78
2021/01/13 01:55:11;;;;;;;;;;;;;;;6.46;49.68;100001.75;4959283;28;19938;-79
2021/01/13 01:57:37;;;;;;;;;;;;;;;6.58;49.43;99997.56;4945107;28;19929;-79
2021/01/13 02:00:11;;;;;;;;;;;;;;;6.33;49.99;100003.28;4930093;28;20386;-78
2021/01/13 02:02:40;;;;;;;;;;;;;;;6.67;49.11;99991.63;4958555;28;19937;-79
2021/01/13 02:05:07;;;;;;;;;;;;;;;6.98;47.39;99991.16;4948970;28;19930;-79
2021/01/13 02:07:34;;;;;;;;;;;;;;;6.83;48.06;99990.97;4976565;28;19969;-79
2021/01/13 02:10:03;;;;;;;;;;;;;;;6.75;48.37;99978.75;4971431;28;19960;-79
2021/01/13 02:12:30;;;;;;;;;;;;;;;6.84;48.23;99984.06;4965662;28;20456;-79
2021/01/13 02:14:59;;;;;;;;;;;;;;;6.42;49.82;99997.38;4978118;28;19922;-78
2021/01/13 02:17:30;;;;;;;;;;;;;;;6.58;49.87;99997.56;4970603;28;19930;-76
2021/01/13 02:20:07;;;;;;;;;;;;;;;6.75;49.73;99994.34;4971869;28;19941;-78
2021/01/13 02:22:53;;;;;;;;;;;;;;;6.60;50.62;99991.53;4965673;28;19961;-79
2021/01/13 02:25:23;;;;;;;;;;;;;;;6.57;50.57;99992.34;4985412;28;20264;-79
2021/01/13 02:28:01;;;;;;;;;;;;;;;6.60;50.49;99975.97;4968279;28;19944;-80
2021/01/13 02:30:49;;;;;;;;;;;;;;;5.98;52.32;99986.31;4957281;28;20412;-77
2021/01/13 02:33:41;;;;;;;;;;;;;;;5.71;52.55;99982.41;4947502;28;19921;-78
2021/01/13 02:36:17;;;;;;;;;;;;;;;6.14;51.75;99985.69;4981266;28;20008;-79
2021/01/13 02:38:49;;;;;;;;;;;;;;;6.16;52.31;99978.81;4961040;28;19922;-78
2021/01/13 02:41:17;;;;;;;;;;;;;;;5.03;54.27;99973.41;4954785;28;19922;-78
2021/01/13 02:43:53;;;;;;;;;;;;;;;5.67;52.95;99979.72;4960996;28;25399;-78
2021/01/13 02:46:38;;;;;;;;;;;;;;;5.95;51.74;99975.88;4981255;28;19922;-78
2021/01/13 02:49:07;;;;;;;;;;;;;;;5.94;52.68;99980.22;4962274;28;19930;-78
2021/01/13 02:51:35;;;;;;;;;;;;;;;5.31;54.25;99986.88;4969692;28;20036;-78
2021/01/13 02:54:11;;;;;;;;;;;;;;;5.51;54.19;99982.94;4973324;28;19925;-78
2021/01/13 02:56:42;;;;;;;;;;;;;;;6.11;52.28;99965.78;4979700;28;19922;-79
2021/01/13 02:59:10;;;;;;;;;;;;;;;5.55;53.60;99964.00;4981418;28;19921;-78
2021/01/13 03:01:40;;;;;;;;;;;;;;;5.85;53.08;99963.63;4970691;28;19922;-78
2021/01/13 03:04:08;;;;;;;;;;;;;;;5.95;52.91;99962.91;4968588;28;19941;-78
2021/01/13 03:06:37;;;;;;;;;;;;;;;5.84;53.28;99954.97;4985515;28;20499;-77
2021/01/13 03:09:05;;;;;;;;;;;;;;;6.14;52.58;99949.38;4991130;28;19933;-78
2021/01/13 03:11:32;;;;;;;;;;;;;;;6.15;52.28;99945.94;4988417;28;19921;-79
2021/01/13 03:14:08;;;;;;;;;;;;;;;6.29;52.07;99943.53;4984969;28;19944;-79
2021/01/13 03:16:37;;;;;;;;;;;;;;;6.37;51.58;99949.72;4968973;28;20376;-79
2021/01/13 03:19:08;;;;;;;;;;;;;;;6.05;52.22;99942.34;4989693;28;20000;-77
2021/01/13 03:21:47;;;;;;;;;;;;;;;5.60;53.89;99942.50;4990748;28;19936;-79
2021/01/13 03:24:17;;;;;;;;;;;;;;;5.64;54.11;99933.91;4987403;28;20237;-76
2021/01/13 03:26:46;;;;;;;;;;;;;;;6.14;52.31;99933.81;4963760;28;19922;-78
2021/01/13 03:29:20;;;;;;;;;;;;;;;5.88;52.45;99932.56;4974460;28;19921;-78
2021/01/13 03:32:07;;;;;;;;;;;;;;;6.00;52.55;99930.16;4970867;28;20401;-78
2021/01/13 03:34:35;;;;;;;;;;;;;;;6.07;52.53;99925.09;4967755;28;19922;-77
2021/01/13 03:37:21;;;;;;;;;;;;;;;6.09;52.13;99933.75;4993629;28;19921;-77
2021/01/13 03:39:50;;;;;;;;;;;;;;;5.53;52.80;99925.09;4962352;28;19984;-80
2021/01/13 03:42:17;;;;;;;;;;;;;;;6.02;52.12;99924.16;4992257;28;19994;-77
2021/01/13 03:44:45;;;;;;;;;;;;;;;6.33;51.30;99925.44;4977067;28;19934;-78
2021/01/13 03:47:24;;;;;;;;;;;;;;;6.26;51.04;99925.34;4951940;28;19930;-78
2021/01/13 03:50:09;;;;;;;;;;;;;;;6.25;51.56;99937.44;4985563;28;20349;-78
2021/01/13 03:52:40;;;;;;;;;;;;;;;5.30;54.82;99944.56;4982434;28;19921;-78
2021/01/13 03:55:07;;;;;;;;;;;;;;;6.29;52.53;99938.34;4987800;28;20300;-78
2021/01/13 03:57:54;;;;;;;;;;;;;;;6.30;52.21;99940.97;4968446;28;20020;-79
2021/01/13 04:00:21;;;;;;;;;;;;;;;6.26;52.13;99934.00;4947294;28;19944;-78
2021/01/13 04:03:06;;;;;;;;;;;;;;;6.23;52.26;99935.69;4954072;28;19928;-81
2021/01/13 04:05:35;;;;;;;;;;;;;;;6.32;52.10;99936.69;4987618;28;19929;-78
2021/01/13 04:08:03;;;;;;;;;;;;;;;6.22;52.61;99934.81;4978716;28;19929;-78
2021/01/13 04:10:29;;;;;;;;;;;;;;;5.73;54.06;99930.59;4967109;28;19925;-78
2021/01/13 04:12:57;;;;;;;;;;;;;;;5.53;53.46;99926.81;4979883;28;19993;-78
2021/01/13 04:15:33;;;;;;;;;;;;;;;5.79;52.67;99930.69;4979220;28;19932;-79
2021/01/13 04:18:01;;;;;;;;;;;;;;;6.04;51.86;99926.78;4984448;28;20328;-77
2021/01/13 04:20:27;;;;;;;;;;;;;;;6.04;52.42;99930.22;4967762;28;19926;-79
2021/01/13 04:22:54;;;;;;;;;;;;;;;5.84;52.90;99933.34;4983596;28;19930;-78
2021/01/13 04:25:20;;;;;;;;;;;;;;;6.17;52.58;99926.09;4990017;28;19929;-81
2021/01/13 04:27:48;;;;;;;;;;;;;;;6.08;52.57;99928.56;4967310;28;19929;-79
2021/01/13 04:30:15;;;;;;;;;;;;;;;5.94;52.14;99923.19;4986862;28;19974;-78
2021/01/13 04:32:42;;;;;;;;;;;;;;;5.96;52.54;99920.59;4988600;28;19933;-77
2021/01/13 04:35:09;;;;;;;;;;;;;;;5.97;52.94;99920.63;4972951;28;19996;-78
2021/01/13 04:37:35;;;;;;;;;;;;;;;5.89;52.83;99916.19;4985361;28;19922;-78
2021/01/13 04:40:15;;;;;;;;;;;;;;;6.04;53.00;99917.25;4990557;28;20332;-79
2021/01/13 04:42:58;;;;;;;;;;;;;;;6.26;52.75;99904.59;4969847;28;20015;-78
2021/01/13 04:45:45;;;;;;;;;;;;;;;6.30;52.55;99901.19;4988809;28;19921;-79
2021/01/13 04:48:13;;;;;;;;;;;;;;;6.32;52.46;99908.16;4984274;28;19922;-78
2021/01/13 04:50:41;;;;;;;;;;;;;;;6.45;52.06;99901.38;4995860;28;20013;-78
2021/01/13 04:53:12;;;;;;;;;;;;;;;6.37;52.32;99897.81;4971099;28;19984;-78
2021/01/13 04:55:56;;;;;;;;;;;;;;;6.29;51.90;99896.84;4984185;28;19937;-78
2021/01/13 04:58:23;;;;;;;;;;;;;;;6.64;51.05;99895.56;4977897;28;19929;-77
2021/01/13 05:01:04;;;;;;;;;;;;;;;6.52;51.42;99896.25;4990732;28;19922;-77
2021/01/13 05:03:50;;;;;;;;;;;;;;;6.60;51.10;99888.59;4970280;28;20336;-77
2021/01/13 05:06:17;;;;;;;;;;;;;;;6.68;49.73;99889.53;4954735;28;19937;-78
2021/01/13 05:08:52;;;;;;;;;;;;;;;6.93;50.00;99895.88;4978192;28;25175;-79
2021/01/13 05:11:20;;;;;;;;;;;;;;;6.85;50.79;99898.41;4987702;28;19922;-78
2021/01/13 05:13:48;;;;;;;;;;;;;;;6.99;50.76;99889.03;4980467;28;19940;-78
2021/01/13 05:16:15;;;;;;;;;;;;;;;6.72;52.09;99886.13;4983630;28;20080;-77
2021/01/13 05:18:52;;;;;;;;;;;;;;;6.99;51.60;99882.97;4966535;28;19929;-78
2021/01/13 05:21:21;;;;;;;;;;;;;;;7.05;51.04;99876.94;4956169;28;20304;-76
2021/01/13 05:23:55;;;;;;;;;;;;;;;6.73;51.36;99879.19;4965564;28;19922;-78
2021/01/13 05:26:23;;;;;;;;;;;;;;;7.09;50.67;99896.91;4988584;28;19922;-78
2021/01/13 05:29:05;;;;;;;;;;;;;;;7.20;50.47;99892.66;4981840;28;20380;-81
2021/01/13 05:31:33;;;;;;;;;;;;;;;7.20;50.38;99890.06;4962992;28;20369;-79
2021/01/13 05:34:00;;;;;;;;;;;;;;;7.04;51.02;99894.25;4968847;28;19948;-78
2021/01/13 05:36:31;;;;;;;;;;;;;;;7.14;50.98;99890.03;4949338;28;19932;-78
2021/01/13 05:39:23;;;;;;;;;;;;;;;7.10;51.16;99883.06;4983589;28;20001;-78
2021/01/13 05:42:10;;;;;;;;;;;;;;;7.13;51.86;99885.69;4965991;28;19930;-77
2021/01/13 05:44:57;;;;;;;;;;;;;;;7.13;51.75;99883.09;4970438;28;19926;-77
2021/01/13 05:47:23;;;;;;;;;;;;;;;7.07;51.57;99885.63;4989754;28;20322;-77
2021/01/13 05:49:52;;;;;;;;;;;;;;;7.17;51.48;99892.63;4979798;28;19994;-78
2021/01/13 05:52:19;;;;;;;;;;;;;;;7.32;50.93;99885.00;4952371;28;19930;-76
2021/01/13 05:54:46;;;;;;;;;;;;;;;7.34;50.87;99894.53;4938732;28;19929;-78
2021/01/13 05:57:13;;;;;;;;;;;;;;;6.77;51.70;99880.97;4946121;28;19926;-78
2021/01/13 05:59:44;;;;;;;;;;;;;;;7.28;50.75;99880.63;4953727;28;19921;-76
2021/01/13 06:02:12;;;;;;;;;;;;;;;7.45;50.16;99882.50;4984327;28;19926;-77
2021/01/13 06:04:40;;;;;;;;;;;;;;;7.63;50.20;99873.97;4981294;28;19922;-77
2021/01/13 06:07:17;;;;;;;;;;;;;;;7.78;49.84;99871.47;4964344;28;19929;-77
2021/01/13 06:09:44;;;;;;;;;;;;;;;7.57;50.67;99879.13;4955006;28;20067;-77
2021/01/13 06:12:17;;;;;;;;;;;;;;;7.66;50.73;99868.81;4972042;28;19925;-77
2021/01/13 06:14:47;;;;;;;;;;;;;;;7.66;50.75;99866.19;4972527;28;21649;-78
2021/01/13 06:17:25;;;;;;;;;;;;;;;7.81;50.30;99863.72;4983276;28;20522;-77
2021/01/13 06:19:55;;;;;;;;;;;;;;;7.83;50.34;99864.56;4968388;28;19930;-79
2021/01/13 06:22:29;;;;;;;;;;;;;;;7.82;50.37;99868.03;4968640;28;20306;-76
2021/01/13 06:24:59;;;;;;;;;;;;;;;8.01;50.13;99876.81;4981576;28;19940;-79
2021/01/13 06:28:02;;;;;;;;;;;;;;;7.64;51.28;99875.72;4962995;28;19930;-78
2021/01/13 06:30:31;;;;;;;;;;;;;;;7.97;50.34;99875.06;4983253;28;19928;-78
2021/01/13 06:33:05;;;;;;;;;;;;;;;7.48;50.53;99868.66;4981811;28;20305;-77
2021/01/13 06:35:35;;;;;;;;;;;;;;;7.94;49.42;99868.97;4966939;28;19928;-77
2021/01/13 06:38:02;;;;;;;;;;;;;;;8.02;49.51;99862.06;4965255;28;19965;-77
2021/01/13 06:40:30;;;;;;;;;;;;;;;8.08;49.44;99862.09;4980073;28;19928;-78
2021/01/13 06:42:56;;;;;;;;;;;;;;;8.11;49.27;99862.13;4982904;28;19925;-77
2021/01/13 06:45:30;;;;;;;;;;;;;;;8.15;49.52;99863.91;4968638;28;19921;-77
2021/01/13 06:47:57;;;;;;;;;;;;;;;8.19;49.83;99860.44;4962082;28;19922;-78
2021/01/13 06:50:50;;;;;;;;;;;;;;;8.05;50.85;99864.72;4978359;28;19922;-77
2021/01/13 06:53:18;;;;;;;;;;;;;;;8.19;51.05;99858.72;4932940;28;19921;-77
2021/01/13 06:55:47;;;;;;;;;;;;;;;8.09;51.53;99856.03;4980250;28;19969;-78
2021/01/13 06:58:15;;;;;;;;;;;;;;;7.10;54.76;99850.13;4984046;28;19936;-78
2021/01/13 07:00:44;;;;;;;;;;;;;;;7.24;53.93;99855.47;4951395;28;20001;-78
2021/01/13 07:03:20;;;;;;;;;;;;;;;7.72;52.84;99860.19;4987571;28;20031;-77
2021/01/13 07:05:50;;;;;;;;;;;;;;;7.97;51.15;99853.38;4927950;28;20012;-77
2021/01/13 07:08:17;;;;;;;;;;;;;;;7.77;50.70;99850.69;4962830;28;19928;-78
2021/01/13 07:10:44;;;;;;;;;;;;;;;7.68;50.73;99854.06;4977902;28;19930;-77
2021/01/13 07:13:12;;;;;;;;;;;;;;;8.13;50.19;99860.41;4980838;28;19925;-77
2021/01/13 07:15:39;;;;;;;;;;;;;;;7.97;50.18;99851.63;4981089;28;20025;-77
2021/01/13 07:18:06;;;;;;;;;;;;;;;8.21;50.00;99853.50;4967957;28;20427;-78
2021/01/13 07:20:39;;;;;;;;;;;;;;;7.60;51.12;99854.88;4963481;28;19976;-78
2021/01/13 07:23:08;;;;;;;;;;;;;;;8.06;50.16;99845.59;4976834;28;19930;-78
2021/01/13 07:25:46;;;;;;;;;;;;;;;8.29;49.59;99847.53;4945566;28;19921;-78
2021/01/13 07:28:33;;;;;;;;;;;;;;;8.41;49.53;99851.88;4955976;28;19921;-78
2021/01/13 07:31:00;;;;;;;;;;;;;;;8.37;49.49;99849.25;4959697;28;19925;-77
2021/01/13 07:33:31;;;;;;;;;;;;;;;8.46;49.32;99847.56;4981940;28;19922;-76
2021/01/13 07:35:58;;;;;;;;;;;;;;;8.51;48.81;99853.66;4980155;28;20008;-77
2021/01/13 07:38:29;;;;;;;;;;;;;;;8.55;49.15;99850.19;4946904;28;19954;-76
2021/01/13 07:40:58;;;;;;;;;;;;;;;8.63;49.25;99842.41;4944991;28;19929;-78
2021/01/13 07:43:43;;;;;;;;;;;;;;;8.55;49.36;99847.59;4947578;28;19987;-79
2021/01/13 07:46:17;;;;;;;;;;;;;;;8.47;50.39;99857.13;4950087;28;20033;-78
2021/01/13 07:49:09;;;;;;;;;;;;;;;8.42;50.83;99852.75;4979786;28;19952;-78
2021/01/13 07:51:45;;;;;;;;;;;;;;;8.10;51.53;99848.25;4961692;28;20357;-77
2021/01/13 07:54:28;;;;;;;;;;;;;;;8.18;52.08;99848.28;4988063;28;19964;-84
2021/01/13 07:56:57;;;;;;;;;;;;;;;7.92;52.80;99849.88;4978067;28;19992;-82
2021/01/13 07:59:24;;;;;;;;;;;;;;;8.26;52.05;99857.84;4987418;28;19922;-81
2021/01/13 08:02:09;;;;;;;;;;;;;;;8.23;52.42;99857.84;4986893;28;19944;-84
2021/01/13 08:04:38;;;;;;;;;;;;;;;8.37;52.39;99860.53;4982484;28;19925;-83
2021/01/13 08:07:13;;;;;;;;;;;;;;;8.14;52.99;99855.22;4983399;28;19922;-84
2021/01/13 08:09:47;;;;;;;;;;;;;;;7.49;55.51;99849.59;4966437;28;19941;-84
2021/01/13 08:12:35;;;;;;;;;;;;;;;7.87;54.45;99849.84;4983817;28;19926;-85
2021/01/13 08:15:20;;;;;;;;;;;;;;;8.10;53.91;99857.78;4986494;28;19976;-84
2021/01/13 08:18:12;;;;;;;;;;;;;;;8.20;53.70;99852.63;4968988;28;19927;-84
2021/01/13 08:20:56;;;;;;;;;;;;;;;7.91;55.41;99858.56;4966203;28;19929;-84
2021/01/13 08:23:32;;;;;;;;;;;;;;;8.04;55.26;99856.03;4986603;28;20300;-84
2021/01/13 08:26:05;;;;;;;;;;;;;;;7.72;56.32;99857.56;4983152;28;19925;-85
2021/01/13 08:28:39;;;;;;;;;;;;;;;7.82;56.36;99862.81;4985820;28;19988;-85
2021/01/13 08:31:07;;;;;;;;;;;;;;;8.04;56.00;99863.84;4980940;28;19937;-83
2021/01/13 08:33:38;;;;;;;;;;;;;;;7.93;56.36;99860.28;4959457;28;19957;-85
2021/01/13 08:36:10;;;;;;;;;;;;;;;8.15;55.93;99861.28;4956504;28;19964;-83
2021/01/13 08:38:37;;;;;;;;;;;;;;;8.11;56.14;99860.38;4990066;28;20024;-84
2021/01/13 08:41:23;;;;;;;;;;;;;;;7.84;56.83;99861.13;4990010;28;19972;-85
2021/01/13 08:44:08;;;;;;;;;;;;;;;8.20;56.51;99870.84;4965362;28;19936;-85
2021/01/13 08:46:35;;;;;;;;;;;;;;;8.35;56.28;99867.47;4922824;28;19929;-80
2021/01/13 08:49:03;;;;;;;;;;;;;;;8.03;57.27;99862.09;4956189;28;19975;-85
2021/01/13 08:51:30;;;;;;;;;;;;;;;8.28;56.59;99850.94;4973271;28;20009;-84
2021/01/13 08:54:19;;;;;;;;;;;;;;;8.57;56.05;99855.41;4988045;28;19937;-82
2021/01/13 08:56:55;;;;;;;;;;;;;;;8.47;56.31;99862.31;4958976;28;19922;-84
2021/01/13 08:59:42;;;;;;;;;;;;;;;8.73;55.76;99860.66;4976540;28;20380;-84
2021/01/13 09:02:13;;;;;;;;;;;;;;;8.95;55.03;99858.13;4967861;28;19925;-81
2021/01/13 09:04:57;;;;;;;;;;;;;;;9.08;54.38;99847.69;4953723;28;19984;-82
2021/01/13 09:07:25;;;;;;;;;;;;;;;9.11;54.54;99859.88;4971068;28;19926;-81
2021/01/13 09:09:59;;;;;;;;;;;;;;;8.88;55.46;99858.94;4977770;28;19926;-81
2021/01/13 09:12:26;;;;;;;;;;;;;;;9.32;54.28;99859.88;4981852;28;20010;-82
2021/01/13 09:15:06;;;;;;;;;;;;;;;9.31;53.82;99862.47;4957920;28;19980;-83
2021/01/13 09:17:34;;;;;;;;;;;;;;;9.28;54.26;99858.16;4981528;28;20403;-82
2021/01/13 09:20:22;;;;;;;;;;;;;;;9.29;54.25;99857.28;4974217;28;19972;-83
2021/01/13 09:22:53;;;;;;;;;;;;;;;9.30;54.50;99856.41;4939435;28;19956;-83
2021/01/13 09:25:29;;;;;;;;;;;;;;;9.62;53.62;99859.00;4967468;28;19949;-85
2021/01/13 09:28:01;;;;;;;;;;;;;;;9.40;54.18;99857.28;4966949;28;19930;-83
2021/01/13 09:30:29;;;;;;;;;;;;;;;8.69;56.25;99853.72;4954487;28;20762;-83
2021/01/13 09:32:58;;;;;;;;;;;;;;;9.27;55.36;99859.00;4986337;28;19925;-81
2021/01/13 09:35:29;;;;;;;;;;;;;;;9.46;55.16;99858.13;4985872;28;19945;-81
2021/01/13 09:38:08;;;;;;;;;;;;;;;9.45;55.04;99856.38;4973007;28;20254;-81
2021/01/13 09:40:55;;;;;;;;;;;;;;;8.97;56.18;99854.63;4980740;28;19973;-82
2021/01/13 09:43:22;;;;;;;;;;;;;;;9.42;55.13;99852.94;4970653;28;19964;-81
2021/01/13 09:45:49;;;;;;;;;;;;;;;9.47;55.05;99859.00;4944854;28;19973;-82
2021/01/13 09:48:16;;;;;;;;;;;;;;;8.80;57.01;99858.94;4916874;29;19928;-81
2021/01/13 09:50:44;;;;;;;;;;;;;;;9.40;55.93;99852.06;4942614;28;21614;-84
2021/01/13 09:53:13;;;;;;;;;;;;;;;9.64;55.32;99854.63;4932977;28;19930;-83
2021/01/13 09:55:40;;;;;;;;;;;;;;;9.72;55.55;99849.44;4914606;28;19994;-82
2021/01/13 09:58:17;;;;;;;;;;;;;;;10.01;54.98;99845.91;4916499;29;19946;-84
2021/01/13 10:00:44;;;;;;;;;;;;;;;10.13;54.59;99842.34;4913887;29;19997;-86
2021/01/13 10:03:11;;;;;;;;;;;;;;;10.27;54.18;99851.03;4931159;29;20426;-84
2021/01/13 10:05:39;;;;;;;;;;;;;;;10.44;53.77;99849.25;4903519;29;20072;-80
2021/01/13 10:08:06;;;;;;;;;;;;;;;10.46;53.81;99852.69;4914323;29;20422;-86
2021/01/13 10:10:33;;;;;;;;;;;;;;;10.25;54.41;99855.41;4910368;29;20014;-84
2021/01/13 10:13:00;;;;;;;;;;;;;;;10.29;54.03;99857.13;4914520;29;20396;-80
2021/01/13 10:15:28;;;;;;;;;;;;;;;10.27;54.12;99860.63;4920910;29;19923;-82
2021/01/13 10:18:01;;;;;;;;;;;;;;;10.71;53.01;99868.25;4940320;28;19923;-82
2021/01/13 10:20:29;;;;;;;;;;;;;;;10.68;53.26;99870.91;4963899;28;22669;-84
2021/01/13 10:22:59;;;;;;;;;;;;;;;10.45;53.64;99871.03;4970878;28;19928;-94
2021/01/13 10:25:29;;;;;;;;;;;;;;;10.48;53.50;99873.59;4947344;28;19926;-81
2021/01/13 10:27:59;;;;;;;;;;;;;;;10.51;53.84;99878.81;4964262;28;19930;-81
2021/01/13 10:30:26;;;;;;;;;;;;;;;10.45;53.91;99882.31;4974626;28;19985;-86
2021/01/13 10:32:53;;;;;;;;;;;;;;;10.24;54.33;99877.19;4987243;28;20008;-83
2021/01/13 10:35:21;;;;;;;;;;;;;;;10.54;53.75;99875.31;4953904;28;20308;-84
2021/01/13 10:37:51;;;;;;;;;;;;;;;10.66;53.44;99873.50;4950732;28;20366;-81
2021/01/13 10:40:21;;;;;;;;;;;;;;;10.60;53.41;99875.31;4969215;28;19928;-84
2021/01/13 10:42:51;;;;;;;;;;;;;;;10.95;52.97;99878.59;4981481;28;20071;-85
2021/01/13 10:45:19;;;;;;;;;;;;;;;10.69;53.77;99876.13;4979390;28;19980;-89
2021/01/13 10:48:06;;;;;;;;;;;;;;;10.37;55.25;99873.63;4962571;28;19991;-82
2021/01/13 10:50:37;;;;;;;;;;;;;;;10.58;54.53;99874.44;4967405;28;19922;-88
2021/01/13 10:53:04;;;;;;;;;;;;;;;10.56;54.86;99865.72;4932136;28;19929;-88
2021/01/13 10:55:32;;;;;;;;;;;;;;;10.87;54.21;99872.53;4913828;28;20001;-83
2021/01/13 10:58:01;;;;;;;;;;;;;;;10.91;53.86;99874.25;4928866;29;20374;-86
2021/01/13 11:00:28;;;;;;;;;;;;;;;10.90;54.20;99876.00;4914846;28;20005;-83
2021/01/13 11:02:58;;;;;;;;;;;;;;;11.01;53.67;99878.56;4946729;28;19922;-84
2021/01/13 11:05:26;;;;;;;;;;;;;;;11.02;53.65;99869.84;4932304;28;20004;-83
2021/01/13 11:07:56;;;;;;;;;;;;;;;11.11;53.08;99877.63;4930769;28;19929;-83
2021/01/13 11:10:23;;;;;;;;;;;;;;;10.80;53.62;99869.09;4941508;28;19986;-84
2021/01/13 11:13:03;;;;;;;;;;;;;;;10.04;54.94;99865.88;4944976;28;19922;-85
2021/01/13 11:15:29;;;;;;;;;;;;;;;10.40;55.38;99862.31;4929352;28;19922;-83
2021/01/13 11:17:57;;;;;;;;;;;;;;;10.58;54.42;99863.97;4907387;28;19973;-82
2021/01/13 11:20:33;;;;;;;;;;;;;;;10.53;54.81;99863.13;4913486;28;19926;-84
2021/01/13 11:23:03;;;;;;;;;;;;;;;10.56;54.24;99863.97;4933572;29;19930;-82
2021/01/13 11:25:34;;;;;;;;;;;;;;;10.37;55.74;99863.19;4922006;29;19953;-81
2021/01/13 11:28:09;;;;;;;;;;;;;;;10.25;57.11;99860.63;4942340;28;20020;-82
2021/01/13 11:30:37;;;;;;;;;;;;;;;10.79;55.16;99864.72;4952398;28;20016;-82
2021/01/13 11:33:05;;;;;;;;;;;;;;;11.04;54.05;99862.84;4971002;28;20312;-82
2021/01/13 11:35:38;;;;;;;;;;;;;;;11.03;54.39;99865.47;4972767;28;19929;-81
2021/01/13 11:38:24;;;;;;;;;;;;;;;11.08;54.46;99861.94;4982978;28;19929;-84
2021/01/13 11:41:01;;;;;;;;;;;;;;;10.97;54.86;99868.13;4947469;28;20445;-80
2021/01/13 11:43:43;;;;;;;;;;;;;;;10.69;55.78;99860.47;4967447;28;20036;-85
2021/01/13 11:46:13;;;;;;;;;;;;;;;10.41;56.42;99869.25;4986490;28;19929;-82
2021/01/13 11:48:55;;;;;;;;;;;;;;;10.41;56.70;99866.66;4956694;28;20009;-80
2021/01/13 11:51:22;;;;;;;;;;;;;;;10.48;56.52;99868.38;4988218;28;20075;-84
2021/01/13 11:53:49;;;;;;;;;;;;;;;10.48;56.62;99869.25;4971529;28;19958;-84
2021/01/13 11:56:28;;;;;;;;;;;;;;;10.62;56.20;99869.19;4973118;28;19921;-86
2021/01/13 11:58:56;;;;;;;;;;;;;;;10.63;55.67;99875.28;4968350;28;20383;-81
2021/01/13 12:01:24;;;;;;;;;;;;;;;10.61;56.16;99871.78;4989703;28;19921;-79
2021/01/13 12:04:01;;;;;;;;;;;;;;;10.55;56.35;99864.00;4989241;28;19921;-81
2021/01/13 12:06:28;;;;;;;;;;;;;;;10.47;56.35;99853.56;4961333;28;20368;-80
2021/01/13 12:08:55;;;;;;;;;;;;;;;10.38;56.63;99844.03;4988900;28;19941;-81
2021/01/13 12:11:22;;;;;;;;;;;;;;;10.35;56.47;99844.06;4990931;28;19933;-83
2021/01/13 12:13:49;;;;;;;;;;;;;;;10.06;56.11;99835.44;4986047;28;19940;-87
2021/01/13 12:16:16;;;;;;;;;;;;;;;9.90;55.80;99845.03;4968094;28;19929;-81
2021/01/13 12:18:47;;;;;;;;;;;;;;;10.01;55.28;99840.66;4985865;28;20443;-85
2021/01/13 12:21:14;;;;;;;;;;;;;;;10.03;54.69;99845.88;4944503;28;19922;-81
2021/01/13 12:23:41;;;;;;;;;;;;;;;10.06;55.69;99830.22;4969749;28;19976;-85
2021/01/13 12:26:15;;;;;;;;;;;;;;;10.23;55.67;99835.41;4975329;28;19929;-87
2021/01/13 12:28:46;;;;;;;;;;;;;;;10.25;56.08;99833.66;4987744;28;19993;-85
2021/01/13 12:31:13;;;;;;;;;;;;;;;10.33;56.36;99824.91;4972671;28;19929;-87
2021/01/13 12:33:48;;;;;;;;;;;;;;;10.66;56.03;99829.09;4975951;28;19945;-87
2021/01/13 12:36:18;;;;;;;;;;;;;;;10.79;55.93;99835.13;4998229;28;20353;-88
2021/01/13 12:38:46;;;;;;;;;;;;;;;10.47;55.46;99825.72;4982348;28;19925;-88
2021/01/13 12:41:22;;;;;;;;;;;;;;;10.69;54.69;99841.28;4981051;28;20030;-88
2021/01/13 12:43:48;;;;;;;;;;;;;;;10.53;54.83;99826.56;4995180;28;19932;-89
2021/01/13 12:46:33;;;;;;;;;;;;;;;10.81;54.95;99834.25;4977046;28;20002;-88
2021/01/13 12:49:00;;;;;;;;;;;;;;;10.77;54.35;99834.25;4964760;28;20421;-88
2021/01/13 12:51:27;;;;;;;;;;;;;;;10.52;54.64;99825.69;4983727;28;19998;-90
2021/01/13 12:53:54;;;;;;;;;;;;;;;10.77;54.94;99821.19;4961176;28;19925;-89
2021/01/13 12:56:29;;;;;;;;;;;;;;;10.94;54.46;99824.56;4991168;28;19929;-88
2021/01/13 12:58:56;;;;;;;;;;;;;;;10.59;53.94;99819.56;4992736;28;19948;-89
2021/01/13 13:01:23;;;;;;;;;;;;;;;10.74;54.28;99821.22;4976837;28;19925;-89
2021/01/13 13:03:50;;;;;;;;;;;;;;;10.83;53.66;99827.28;4959102;28;19921;-83
2021/01/13 13:06:30;;;;;;;;;;;;;;;11.00;52.13;99823.66;4969486;28;19929;-79
2021/01/13 13:08:57;;;;;;;;;;;;;;;10.94;52.31;99824.56;4982823;28;19922;-82
2021/01/13 13:11:24;;;;;;;;;;;;;;;11.00;51.97;99816.69;4943294;28;19930;-84
2021/01/13 13:13:51;;;;;;;;;;;;;;;10.99;52.77;99819.28;4989436;28;20356;-86
2021/01/13 13:16:19;;;;;;;;;;;;;;;10.89;52.93;99819.38;4994440;28;19988;-86